createdAt,value
2018-04-15T00:00:49.121Z,0.00
2018-04-15T00:01:49.282Z,0.00
2018-04-15T00:02:49.464Z,0.00
2018-04-15T00:03:49.641Z,0.00
2018-04-15T00:04:49.835Z,0.00
2018-04-15T00:05:50.018Z,0.00
2018-04-15T00:06:50.201Z,0.00
2018-04-15T00:07:50.392Z,0.00
2018-04-15T00:08:50.554Z,0.00
2018-04-15T00:09:50.737Z,0.00
2018-04-15T00:10:50.913Z,0.00
2018-04-15T00:11:51.092Z,0.00
2018-04-15T00:12:51.279Z,0.00
2018-04-15T00:13:51.463Z,0.00
2018-04-15T00:14:51.654Z,0.00
2018-04-15T00:15:51.836Z,0.00
2018-04-15T00:16:52.012Z,0.00
2018-04-15T00:17:52.193Z,0.00
2018-04-15T00:18:52.382Z,0.00
2018-04-15T00:19:52.592Z,0.00
2018-04-15T00:20:52.746Z,0.00
2018-04-15T00:21:52.917Z,0.00
2018-04-15T00:22:53.095Z,0.00
2018-04-15T00:23:53.283Z,0.00
2018-04-15T00:24:53.458Z,0.00
2018-04-15T00:25:53.656Z,0.00
2018-04-15T00:26:53.823Z,0.00
2018-04-15T00:27:54.005Z,0.00
2018-04-15T00:28:54.209Z,0.00
2018-04-15T00:29:54.362Z,0.00
2018-04-15T00:30:54.533Z,0.00
2018-04-15T00:31:54.717Z,0.00
2018-04-15T00:32:54.906Z,0.00
2018-04-15T00:33:55.091Z,0.00
2018-04-15T00:34:55.265Z,0.00
2018-04-15T00:35:55.447Z,0.00
2018-04-15T00:36:55.876Z,0.00
2018-04-15T00:37:55.811Z,0.00
2018-04-15T00:38:55.997Z,0.00
2018-04-15T00:39:56.182Z,0.00
2018-04-15T00:40:56.364Z,0.00
2018-04-15T00:41:56.546Z,0.00
2018-04-15T00:42:56.726Z,0.00
2018-04-15T00:43:56.910Z,0.00
2018-04-15T00:44:57.095Z,0.00
2018-04-15T00:45:57.279Z,0.00
2018-04-15T00:46:57.489Z,0.00
2018-04-15T00:47:57.631Z,0.00
2018-04-15T00:48:57.805Z,0.00
2018-04-15T00:49:57.993Z,0.00
2018-04-15T00:50:58.158Z,0.00
2018-04-15T00:51:58.348Z,0.00
2018-04-15T00:52:58.524Z,0.00
2018-04-15T00:53:58.708Z,0.00
2018-04-15T00:54:58.884Z,0.00
2018-04-15T00:55:59.072Z,0.00
2018-04-15T00:56:59.250Z,0.00
2018-04-15T00:57:59.428Z,0.00
2018-04-15T00:58:59.607Z,0.00
2018-04-15T00:59:59.797Z,0.00
2018-04-15T01:00:59.970Z,0.00
2018-04-15T01:02:00.139Z,0.00
2018-04-15T01:03:00.322Z,0.00
2018-04-15T01:04:00.503Z,0.00
2018-04-15T01:05:00.685Z,0.00
2018-04-15T01:06:00.866Z,0.00
2018-04-15T01:07:01.048Z,0.00
2018-04-15T01:08:01.218Z,0.00
2018-04-15T01:09:01.401Z,0.00
2018-04-15T01:10:01.571Z,0.00
2018-04-15T01:11:01.748Z,0.00
2018-04-15T01:12:01.918Z,0.00
2018-04-15T01:13:02.100Z,0.00
2018-04-15T01:14:02.275Z,0.00
2018-04-15T01:15:02.458Z,0.00
2018-04-15T01:16:02.639Z,0.00
2018-04-15T01:17:02.807Z,0.00
2018-04-15T01:18:03.004Z,0.00
2018-04-15T01:19:03.180Z,0.00
2018-04-15T01:20:03.345Z,0.00
2018-04-15T01:21:03.532Z,0.00
2018-04-15T01:22:03.706Z,0.00
2018-04-15T01:23:03.891Z,0.00
2018-04-15T01:24:04.077Z,0.00
2018-04-15T01:25:04.254Z,0.00
2018-04-15T01:26:04.441Z,0.00
2018-04-15T01:27:04.612Z,0.00
2018-04-15T01:28:04.792Z,0.00
2018-04-15T01:29:04.977Z,0.00
2018-04-15T01:30:05.153Z,0.00
2018-04-15T01:31:05.335Z,0.00
2018-04-15T01:32:05.513Z,0.00
2018-04-15T01:33:05.709Z,0.00
2018-04-15T01:34:05.899Z,0.00
2018-04-15T01:35:06.078Z,0.00
2018-04-15T01:36:06.256Z,0.00
2018-04-15T01:37:06.437Z,0.00
2018-04-15T01:38:06.618Z,0.00
2018-04-15T01:39:06.799Z,0.00
2018-04-15T01:40:06.980Z,0.00
2018-04-15T01:41:07.160Z,0.00
2018-04-15T01:42:07.338Z,0.00
2018-04-15T01:43:07.531Z,0.00
2018-04-15T01:44:07.702Z,0.00
2018-04-15T01:45:07.878Z,0.00
2018-04-15T01:46:08.064Z,0.00
2018-04-15T01:47:08.241Z,0.00
2018-04-15T01:48:08.420Z,0.00
2018-04-15T01:49:08.599Z,0.00
2018-04-15T01:50:08.789Z,0.00
2018-04-15T01:51:08.962Z,0.00
2018-04-15T01:52:09.148Z,0.00
2018-04-15T01:53:09.324Z,0.00
2018-04-15T01:54:09.497Z,0.00
2018-04-15T01:55:09.922Z,0.00
2018-04-15T01:56:09.870Z,0.00
2018-04-15T01:57:10.043Z,0.00
2018-04-15T01:58:10.218Z,0.00
2018-04-15T01:59:10.384Z,0.00
2018-04-15T02:00:10.569Z,0.00
2018-04-15T02:01:10.752Z,0.00
2018-04-15T02:02:10.931Z,0.00
2018-04-15T02:03:11.117Z,0.00
2018-04-15T02:04:11.308Z,0.00
2018-04-15T02:05:11.495Z,0.00
2018-04-15T02:06:11.675Z,0.00
2018-04-15T02:07:11.842Z,0.00
2018-04-15T02:08:12.028Z,0.00
2018-04-15T02:09:12.212Z,0.00
2018-04-15T02:10:12.396Z,0.00
2018-04-15T02:11:12.591Z,0.00
2018-04-15T02:12:12.766Z,0.00
2018-04-15T02:13:12.947Z,0.00
2018-04-15T02:14:13.126Z,0.00
2018-04-15T02:15:13.540Z,0.00
2018-04-15T02:16:13.473Z,0.00
2018-04-15T02:17:13.652Z,0.00
2018-04-15T02:18:13.830Z,0.00
2018-04-15T02:19:14.010Z,0.00
2018-04-15T02:20:14.187Z,0.00
2018-04-15T02:21:14.377Z,0.00
2018-04-15T02:22:14.548Z,0.00
2018-04-15T02:23:14.735Z,0.00
2018-04-15T02:24:14.934Z,0.00
2018-04-15T02:25:15.113Z,0.00
2018-04-15T02:26:15.262Z,0.00
2018-04-15T02:27:15.441Z,0.00
2018-04-15T02:28:15.610Z,0.00
2018-04-15T02:29:15.788Z,0.00
2018-04-15T02:30:15.970Z,0.00
2018-04-15T02:31:16.157Z,0.00
2018-04-15T02:32:16.339Z,0.00
2018-04-15T02:33:16.518Z,0.00
2018-04-15T02:34:16.696Z,0.00
2018-04-15T02:35:16.871Z,0.00
2018-04-15T02:36:17.060Z,0.00
2018-04-15T02:37:17.240Z,0.00
2018-04-15T02:38:17.424Z,0.00
2018-04-15T02:39:17.842Z,0.00
2018-04-15T02:40:20.297Z,0.00
2018-04-15T02:41:17.982Z,0.00
2018-04-15T02:42:18.156Z,0.00
2018-04-15T02:43:18.342Z,0.00
2018-04-15T02:44:18.528Z,0.00
2018-04-15T02:45:18.704Z,0.00
2018-04-15T02:46:18.893Z,0.00
2018-04-15T02:47:19.067Z,0.00
2018-04-15T02:48:19.246Z,0.00
2018-04-15T02:49:19.435Z,0.00
2018-04-15T02:50:19.608Z,0.00
2018-04-15T02:51:19.802Z,0.00
2018-04-15T02:52:19.996Z,0.00
2018-04-15T02:53:20.183Z,0.00
2018-04-15T02:54:20.359Z,0.00
2018-04-15T02:55:20.543Z,0.00
2018-04-15T02:56:20.722Z,0.00
2018-04-15T02:57:20.921Z,0.00
2018-04-15T02:58:21.094Z,0.00
2018-04-15T02:59:21.264Z,0.00
2018-04-15T03:00:21.447Z,0.00
2018-04-15T03:01:21.621Z,0.00
2018-04-15T03:02:21.803Z,0.00
2018-04-15T03:03:21.988Z,0.00
2018-04-15T03:04:22.169Z,0.00
2018-04-15T03:05:22.348Z,0.00
2018-04-15T03:06:22.534Z,0.00
2018-04-15T03:07:22.714Z,0.00
2018-04-15T03:08:22.897Z,0.00
2018-04-15T03:09:23.073Z,0.00
2018-04-15T03:10:23.255Z,0.00
2018-04-15T03:11:23.427Z,0.00
2018-04-15T03:12:23.611Z,0.00
2018-04-15T03:13:23.791Z,0.00
2018-04-15T03:14:23.978Z,0.00
2018-04-15T03:15:24.176Z,0.00
2018-04-15T03:16:24.361Z,0.00
2018-04-15T03:17:24.541Z,0.00
2018-04-15T03:18:24.709Z,0.00
2018-04-15T03:19:24.896Z,0.00
2018-04-15T03:20:25.061Z,0.00
2018-04-15T03:21:25.247Z,0.00
2018-04-15T03:22:25.425Z,0.00
2018-04-15T03:23:25.608Z,0.00
2018-04-15T03:24:25.785Z,0.00
2018-04-15T03:25:25.969Z,0.00
2018-04-15T03:26:26.152Z,0.00
2018-04-15T03:27:26.334Z,0.00
2018-04-15T03:28:26.511Z,0.00
2018-04-15T03:29:26.691Z,0.00
2018-04-15T03:30:26.882Z,0.00
2018-04-15T03:31:27.081Z,0.00
2018-04-15T03:32:27.234Z,0.00
2018-04-15T03:33:27.414Z,0.00
2018-04-15T03:34:27.594Z,0.00
2018-04-15T03:35:27.773Z,0.00
2018-04-15T03:36:27.957Z,0.00
2018-04-15T03:37:28.139Z,0.00
2018-04-15T03:38:28.321Z,0.00
2018-04-15T03:39:28.506Z,0.00
2018-04-15T03:40:28.680Z,0.00
2018-04-15T03:41:28.863Z,0.00
2018-04-15T03:42:29.041Z,0.00
2018-04-15T03:43:29.220Z,0.00
2018-04-15T03:44:29.419Z,0.00
2018-04-15T03:45:29.606Z,0.00
2018-04-15T03:46:29.776Z,0.00
2018-04-15T03:47:29.962Z,0.00
2018-04-15T03:48:30.132Z,0.00
2018-04-15T03:49:30.313Z,0.00
2018-04-15T03:50:30.492Z,0.00
2018-04-15T03:51:30.686Z,0.00
2018-04-15T03:52:30.860Z,0.00
2018-04-15T03:53:31.061Z,0.00
2018-04-15T03:54:31.226Z,0.00
2018-04-15T03:55:31.391Z,0.00
2018-04-15T03:56:31.569Z,0.00
2018-04-15T03:58:31.916Z,0.00
2018-04-15T03:59:32.101Z,0.00
2018-04-15T04:00:32.270Z,0.00
2018-04-15T04:01:32.449Z,0.00
2018-04-15T04:02:32.630Z,4.00
2018-04-15T04:03:32.827Z,4.00
2018-04-15T04:04:32.998Z,0.00
2018-04-15T04:05:33.168Z,4.00
2018-04-15T04:06:33.348Z,4.00
2018-04-15T04:07:33.534Z,4.00
2018-04-15T04:08:33.711Z,4.00
2018-04-15T04:09:33.884Z,8.00
2018-04-15T04:10:34.062Z,8.00
2018-04-15T04:11:34.238Z,8.00
2018-04-15T04:12:34.419Z,12.00
2018-04-15T04:13:34.600Z,12.00
2018-04-15T04:14:34.782Z,12.00
2018-04-15T04:15:34.951Z,12.00
2018-04-15T04:16:35.136Z,12.00
2018-04-15T04:17:35.313Z,16.00
2018-04-15T04:18:35.488Z,20.00
2018-04-15T04:19:35.670Z,20.00
2018-04-15T04:20:35.856Z,20.00
2018-04-15T04:21:36.038Z,20.00
2018-04-15T04:22:36.227Z,24.00
2018-04-15T04:23:36.393Z,28.00
2018-04-15T04:24:36.578Z,36.00
2018-04-15T04:25:36.758Z,40.00
2018-04-15T04:26:36.934Z,44.00
2018-04-15T04:27:37.114Z,48.00
2018-04-15T04:28:37.297Z,56.00
2018-04-15T04:29:37.518Z,60.00
2018-04-15T04:30:37.661Z,64.00
2018-04-15T04:31:37.845Z,68.00
2018-04-15T04:32:38.025Z,72.00
2018-04-15T04:33:38.201Z,76.00
2018-04-15T04:34:38.381Z,80.00
2018-04-15T04:35:38.559Z,84.00
2018-04-15T04:36:38.741Z,84.00
2018-04-15T04:37:38.932Z,88.00
2018-04-15T04:38:39.097Z,92.00
2018-04-15T04:39:39.280Z,92.00
2018-04-15T04:40:39.463Z,100.00
2018-04-15T04:41:39.645Z,100.00
2018-04-15T04:42:39.816Z,104.00
2018-04-15T04:43:40.005Z,108.00
2018-04-15T04:44:40.192Z,116.00
2018-04-15T04:45:40.378Z,120.00
2018-04-15T04:46:40.547Z,124.00
2018-04-15T04:47:40.726Z,132.00
2018-04-15T04:48:41.153Z,136.00
2018-04-15T04:49:41.083Z,144.00
2018-04-15T04:50:41.257Z,148.00
2018-04-15T04:51:41.447Z,156.00
2018-04-15T04:52:41.622Z,160.00
2018-04-15T04:53:41.803Z,168.00
2018-04-15T04:54:41.979Z,180.00
2018-04-15T04:55:42.165Z,184.00
2018-04-15T04:56:42.345Z,200.00
2018-04-15T04:57:42.531Z,212.00
2018-04-15T04:58:42.701Z,236.00
2018-04-15T04:59:42.884Z,256.00
2018-04-15T05:00:43.063Z,276.00
2018-04-15T05:01:43.485Z,296.00
2018-04-15T05:02:43.429Z,312.00
2018-04-15T05:03:43.611Z,336.00
2018-04-15T05:04:43.798Z,368.00
2018-04-15T05:05:44.230Z,404.00
2018-04-15T05:06:44.153Z,440.00
2018-04-15T05:07:44.330Z,476.00
2018-04-15T05:08:44.527Z,512.00
2018-04-15T05:09:44.689Z,548.00
2018-04-15T05:10:45.840Z,584.00
2018-04-15T05:11:45.016Z,620.00
2018-04-15T05:12:45.204Z,652.00
2018-04-15T05:13:45.388Z,672.00
2018-04-15T05:14:45.543Z,688.00
2018-04-15T05:15:45.719Z,696.00
2018-04-15T05:16:45.902Z,712.00
2018-04-15T05:17:46.069Z,736.00
2018-04-15T05:18:46.243Z,764.00
2018-04-15T05:19:46.422Z,796.00
2018-04-15T05:20:46.596Z,836.00
2018-04-15T05:21:46.780Z,888.00
2018-04-15T05:22:46.952Z,944.00
2018-04-15T05:23:47.136Z,1000.00
2018-04-15T05:24:47.315Z,1084.00
2018-04-15T05:25:47.494Z,1216.00
2018-04-15T05:26:47.664Z,1348.00
2018-04-15T05:27:47.842Z,1424.00
2018-04-15T05:28:48.032Z,1528.00
2018-04-15T05:29:48.201Z,1608.00
2018-04-15T05:30:48.384Z,1680.00
2018-04-15T05:31:48.566Z,1776.00
2018-04-15T05:32:48.749Z,1908.00
2018-04-15T05:33:48.937Z,2072.00
2018-04-15T05:34:49.114Z,2256.00
2018-04-15T05:35:49.288Z,2496.00
2018-04-15T05:36:49.471Z,2572.00
2018-04-15T05:37:49.651Z,2716.00
2018-04-15T05:38:49.835Z,2860.00
2018-04-15T05:39:50.017Z,2964.00
2018-04-15T05:40:50.186Z,3080.00
2018-04-15T05:41:50.366Z,3076.00
2018-04-15T05:42:50.558Z,3208.00
2018-04-15T05:43:50.730Z,3220.00
2018-04-15T05:44:50.921Z,3208.00
2018-04-15T05:45:51.079Z,3296.00
2018-04-15T05:46:51.259Z,3412.00
2018-04-15T05:47:51.442Z,4016.00
2018-04-15T05:48:51.609Z,6048.00
2018-04-15T05:49:51.779Z,5720.00
2018-04-15T05:50:51.956Z,5736.00
2018-04-15T05:51:52.135Z,5520.00
2018-04-15T05:52:52.318Z,3712.00
2018-04-15T05:53:52.555Z,3208.00
2018-04-15T05:54:52.681Z,2884.00
2018-04-15T05:55:52.864Z,2716.00
2018-04-15T05:56:53.045Z,2596.00
2018-04-15T05:57:53.232Z,2496.00
2018-04-15T05:58:53.414Z,2440.00
2018-04-15T05:59:53.598Z,2428.00
2018-04-15T06:00:53.761Z,2440.00
2018-04-15T06:01:53.947Z,2464.00
2018-04-15T06:02:54.131Z,2500.00
2018-04-15T06:03:54.315Z,2560.00
2018-04-15T06:04:54.504Z,2652.00
2018-04-15T06:05:54.677Z,2788.00
2018-04-15T06:06:54.863Z,2928.00
2018-04-15T06:07:55.287Z,3168.00
2018-04-15T06:08:55.229Z,3452.00
2018-04-15T06:09:55.408Z,3516.00
2018-04-15T06:10:55.595Z,3664.00
2018-04-15T06:11:55.769Z,3816.00
2018-04-15T06:12:55.954Z,3892.00
2018-04-15T06:13:56.146Z,3976.00
2018-04-15T06:14:56.337Z,3816.00
2018-04-15T06:15:56.497Z,3740.00
2018-04-15T06:16:56.675Z,3652.00
2018-04-15T06:17:56.852Z,3380.00
2018-04-15T06:18:57.037Z,3180.00
2018-04-15T06:19:57.465Z,2956.00
2018-04-15T06:20:57.404Z,2876.00
2018-04-15T06:21:57.589Z,3064.00
2018-04-15T06:22:57.768Z,2912.00
2018-04-15T06:23:57.961Z,2600.00
2018-04-15T06:24:58.131Z,2544.00
2018-04-15T06:25:58.305Z,2428.00
2018-04-15T06:26:58.489Z,2372.00
2018-04-15T06:27:58.657Z,2388.00
2018-04-15T06:28:58.835Z,2360.00
2018-04-15T06:29:59.019Z,2416.00
2018-04-15T06:30:59.199Z,2500.00
2018-04-15T06:31:59.382Z,2564.00
2018-04-15T06:32:59.640Z,2684.00
2018-04-15T06:33:59.756Z,2868.00
2018-04-15T06:34:59.939Z,3084.00
2018-04-15T06:36:00.133Z,3380.00
2018-04-15T06:37:00.306Z,3580.00
2018-04-15T06:38:00.486Z,3768.00
2018-04-15T06:39:00.676Z,3892.00
2018-04-15T06:40:00.859Z,3704.00
2018-04-15T06:41:01.037Z,3584.00
2018-04-15T06:42:01.223Z,3584.00
2018-04-15T06:43:01.415Z,3784.00
2018-04-15T06:44:01.611Z,3976.00
2018-04-15T06:45:01.768Z,4004.00
2018-04-15T06:46:01.947Z,4300.00
2018-04-15T06:47:02.127Z,4500.00
2018-04-15T06:48:02.302Z,4400.00
2018-04-15T06:49:02.481Z,4480.00
2018-04-15T06:50:02.655Z,5356.00
2018-04-15T06:51:02.839Z,7780.00
2018-04-15T06:52:03.037Z,7412.00
2018-04-15T06:53:03.201Z,5288.00
2018-04-15T06:54:03.623Z,5064.00
2018-04-15T06:55:03.602Z,4452.00
2018-04-15T06:56:03.738Z,4116.00
2018-04-15T06:57:03.921Z,3836.00
2018-04-15T06:58:04.123Z,3824.00
2018-04-15T06:59:04.269Z,3744.00
2018-04-15T07:00:04.463Z,3764.00
2018-04-15T07:01:04.639Z,3788.00
2018-04-15T07:02:04.818Z,3844.00
2018-04-15T07:03:05.006Z,4268.00
2018-04-15T07:04:05.186Z,3960.00
2018-04-15T07:05:05.367Z,3820.00
2018-04-15T07:06:05.551Z,3812.00
2018-04-15T07:07:05.737Z,3528.00
2018-04-15T07:08:05.900Z,3484.00
2018-04-15T07:09:06.079Z,3432.00
2018-04-15T07:10:06.797Z,3492.00
2018-04-15T07:12:06.583Z,3016.00
2018-04-15T07:13:06.756Z,2808.00
2018-04-15T07:14:06.955Z,2656.00
2018-04-15T07:15:07.117Z,2556.00
2018-04-15T07:16:07.298Z,2476.00
2018-04-15T07:17:07.479Z,2412.00
2018-04-15T07:18:07.673Z,2340.00
2018-04-15T07:19:07.849Z,2268.00
2018-04-15T07:20:08.033Z,2196.00
2018-04-15T07:21:08.206Z,2116.00
2018-04-15T07:22:08.395Z,2044.00
2018-04-15T07:23:08.576Z,2012.00
2018-04-15T07:24:08.759Z,2004.00
2018-04-15T07:25:08.949Z,2008.00
2018-04-15T07:26:09.117Z,2012.00
2018-04-15T07:27:09.309Z,2020.00
2018-04-15T07:28:09.503Z,2028.00
2018-04-15T07:29:09.668Z,2044.00
2018-04-15T07:30:09.846Z,2072.00
2018-04-15T07:31:10.045Z,2100.00
2018-04-15T07:32:10.212Z,2124.00
2018-04-15T07:33:10.386Z,2148.00
2018-04-15T07:34:10.583Z,2176.00
2018-04-15T07:35:10.733Z,2216.00
2018-04-15T07:36:10.914Z,2256.00
2018-04-15T07:37:11.095Z,2296.00
2018-04-15T07:38:11.276Z,2344.00
2018-04-15T07:39:11.442Z,2396.00
2018-04-15T07:40:11.622Z,2472.00
2018-04-15T07:41:11.831Z,2568.00
2018-04-15T07:42:11.973Z,2712.00
2018-04-15T07:43:12.181Z,2860.00
2018-04-15T07:44:12.330Z,3020.00
2018-04-15T07:45:12.515Z,3076.00
2018-04-15T07:46:12.673Z,3208.00
2018-04-15T07:47:12.859Z,3424.00
2018-04-15T07:48:13.035Z,3752.00
2018-04-15T07:49:13.205Z,3884.00
2018-04-15T07:50:13.382Z,4116.00
2018-04-15T07:51:13.564Z,4368.00
2018-04-15T07:52:13.755Z,4528.00
2018-04-15T07:53:13.924Z,4556.00
2018-04-15T07:54:14.129Z,4528.00
2018-04-15T07:55:14.287Z,4400.00
2018-04-15T07:56:14.524Z,4268.00
2018-04-15T07:57:14.661Z,4208.00
2018-04-15T07:58:14.834Z,4276.00
2018-04-15T07:59:14.996Z,4516.00
2018-04-15T08:00:15.193Z,4664.00
2018-04-15T08:01:15.360Z,4820.00
2018-04-15T08:02:15.564Z,4796.00
2018-04-15T08:03:15.737Z,4828.00
2018-04-15T08:04:15.917Z,4892.00
2018-04-15T08:05:16.093Z,4868.00
2018-04-15T08:06:16.284Z,4816.00
2018-04-15T08:07:16.453Z,4692.00
2018-04-15T08:08:16.638Z,4516.00
2018-04-15T08:09:16.830Z,4360.00
2018-04-15T08:10:17.007Z,4284.00
2018-04-15T08:11:17.195Z,4224.00
2018-04-15T08:12:17.380Z,4172.00
2018-04-15T08:13:17.565Z,4064.00
2018-04-15T08:14:17.747Z,3912.00
2018-04-15T08:15:17.930Z,3768.00
2018-04-15T08:16:18.122Z,3652.00
2018-04-15T08:17:18.293Z,3544.00
2018-04-15T08:18:18.475Z,3456.00
2018-04-15T08:19:18.647Z,3384.00
2018-04-15T08:20:18.837Z,3324.00
2018-04-15T08:21:19.014Z,3264.00
2018-04-15T08:22:19.430Z,3200.00
2018-04-15T08:23:19.372Z,3144.00
2018-04-15T08:24:19.554Z,3108.00
2018-04-15T08:26:19.913Z,3092.00
2018-04-15T08:27:20.098Z,3080.00
2018-04-15T08:28:20.266Z,3064.00
2018-04-15T08:29:20.466Z,3040.00
2018-04-15T08:30:20.651Z,3012.00
2018-04-15T08:31:20.840Z,2996.00
2018-04-15T08:32:21.020Z,2980.00
2018-04-15T08:33:21.209Z,2984.00
2018-04-15T08:34:21.379Z,3020.00
2018-04-15T08:35:21.566Z,3096.00
2018-04-15T08:36:21.760Z,3256.00
2018-04-15T08:37:23.143Z,3496.00
2018-04-15T08:38:22.178Z,3768.00
2018-04-15T08:39:22.352Z,4256.00
2018-04-15T08:40:22.531Z,4688.00
2018-04-15T08:41:22.708Z,5060.00
2018-04-15T08:42:22.907Z,5404.00
2018-04-15T08:43:23.084Z,5524.00
2018-04-15T08:44:23.274Z,5764.00
2018-04-15T08:45:23.456Z,5796.00
2018-04-15T08:46:23.644Z,5960.00
2018-04-15T08:47:23.823Z,6852.00
2018-04-15T08:48:24.001Z,5796.00
2018-04-15T08:49:24.189Z,5952.00
2018-04-15T08:50:24.351Z,6584.00
2018-04-15T08:51:24.539Z,8340.00
2018-04-15T08:52:24.721Z,6856.00
2018-04-15T08:53:24.920Z,6740.00
2018-04-15T08:54:25.101Z,7492.00
2018-04-15T08:55:25.280Z,8128.00
2018-04-15T08:56:25.452Z,8812.00
2018-04-15T08:57:25.625Z,10024.00
2018-04-15T08:58:25.820Z,7716.00
2018-04-15T08:59:26.838Z,7500.00
2018-04-15T09:00:26.152Z,8624.00
2018-04-15T09:01:26.336Z,7428.00
2018-04-15T09:02:26.533Z,7372.00
2018-04-15T09:03:26.714Z,7708.00
2018-04-15T09:04:26.881Z,7656.00
2018-04-15T09:05:27.067Z,7896.00
2018-04-15T09:06:27.253Z,8584.00
2018-04-15T09:07:27.438Z,8728.00
2018-04-15T09:08:27.617Z,10724.00
2018-04-15T09:09:27.799Z,10324.00
2018-04-15T09:10:27.988Z,9676.00
2018-04-15T09:11:28.159Z,9956.00
2018-04-15T09:12:28.345Z,9800.00
2018-04-15T09:13:28.532Z,10776.00
2018-04-15T09:14:28.723Z,9772.00
2018-04-15T09:15:28.908Z,8712.00
2018-04-15T09:16:29.093Z,8548.00
2018-04-15T09:17:29.276Z,8372.00
2018-04-15T09:18:30.398Z,8940.00
2018-04-15T09:19:29.706Z,12480.00
2018-04-15T09:20:29.916Z,9816.00
2018-04-15T09:21:30.081Z,12364.00
2018-04-15T09:22:30.264Z,12392.00
2018-04-15T09:23:30.433Z,10020.00
2018-04-15T09:24:30.616Z,11648.00
2018-04-15T09:25:30.794Z,10000.00
2018-04-15T09:26:30.985Z,9008.00
2018-04-15T09:27:31.164Z,8396.00
2018-04-15T09:28:31.350Z,11184.00
2018-04-15T09:29:31.546Z,10604.00
2018-04-15T09:30:31.725Z,10216.00
2018-04-15T09:31:31.933Z,12084.00
2018-04-15T09:32:32.099Z,11856.00
2018-04-15T09:33:32.277Z,11764.00
2018-04-15T09:34:32.480Z,11708.00
2018-04-15T09:35:32.636Z,11056.00
2018-04-15T09:36:32.834Z,10792.00
2018-04-15T09:37:32.991Z,9852.00
2018-04-15T09:38:33.192Z,11036.00
2018-04-15T09:39:33.419Z,11328.00
2018-04-15T09:40:33.578Z,11556.00
2018-04-15T09:41:33.814Z,11224.00
2018-04-15T09:42:33.998Z,11276.00
2018-04-15T09:43:34.188Z,11364.00
2018-04-15T09:44:34.373Z,11640.00
2018-04-15T09:45:34.558Z,11568.00
2018-04-15T09:46:34.730Z,11412.00
2018-04-15T09:47:34.919Z,11220.00
2018-04-15T09:48:35.094Z,11072.00
2018-04-15T09:49:35.277Z,11160.00
2018-04-15T09:50:35.475Z,11240.00
2018-04-15T09:51:35.658Z,10916.00
2018-04-15T09:52:35.853Z,10288.00
2018-04-15T09:53:35.994Z,9276.00
2018-04-15T09:54:36.167Z,10112.00
2018-04-15T09:55:36.353Z,8012.00
2018-04-15T09:56:36.591Z,11544.00
2018-04-15T09:57:36.719Z,9528.00
2018-04-15T09:58:36.898Z,12848.00
2018-04-15T09:59:37.085Z,10560.00
2018-04-15T10:00:37.244Z,9604.00
2018-04-15T10:01:37.425Z,9504.00
2018-04-15T10:02:37.622Z,8772.00
2018-04-15T10:03:37.810Z,9772.00
2018-04-15T10:04:37.956Z,11828.00
2018-04-15T10:05:38.848Z,12112.00
2018-04-15T10:06:38.291Z,11848.00
2018-04-15T10:07:38.481Z,11152.00
2018-04-15T10:08:38.643Z,10680.00
2018-04-15T10:09:38.814Z,10396.00
2018-04-15T10:10:39.005Z,9664.00
2018-04-15T10:11:39.196Z,10248.00
2018-04-15T10:12:39.404Z,10028.00
2018-04-15T10:13:39.568Z,9592.00
2018-04-15T10:14:39.754Z,9432.00
2018-04-15T10:15:39.953Z,9440.00
2018-04-15T10:16:40.132Z,9528.00
2018-04-15T10:17:40.296Z,9272.00
2018-04-15T10:18:40.482Z,9008.00
2018-04-15T10:19:40.699Z,8964.00
2018-04-15T10:20:40.882Z,9016.00
2018-04-15T10:21:41.089Z,8888.00
2018-04-15T10:22:41.269Z,8704.00
2018-04-15T10:23:41.421Z,8596.00
2018-04-15T10:24:41.598Z,8588.00
2018-04-15T10:25:41.795Z,8628.00
2018-04-15T10:26:41.989Z,8744.00
2018-04-15T10:27:42.152Z,9064.00
2018-04-15T10:28:42.375Z,9228.00
2018-04-15T10:29:42.523Z,9208.00
2018-04-15T10:30:42.701Z,8964.00
2018-04-15T10:31:42.900Z,8540.00
2018-04-15T10:32:43.091Z,8292.00
2018-04-15T10:33:43.257Z,8164.00
2018-04-15T10:34:43.441Z,8080.00
2018-04-15T10:35:43.618Z,8076.00
2018-04-15T10:36:43.803Z,8036.00
2018-04-15T10:37:43.987Z,7976.00
2018-04-15T10:38:44.245Z,7908.00
2018-04-15T10:39:44.368Z,7912.00
2018-04-15T10:40:44.546Z,7940.00
2018-04-15T10:41:44.707Z,7836.00
2018-04-15T10:42:44.880Z,7836.00
2018-04-15T10:43:45.116Z,7828.00
2018-04-15T10:44:45.289Z,7792.00
2018-04-15T10:45:45.549Z,7720.00
2018-04-15T10:46:45.752Z,7712.00
2018-04-15T10:47:45.904Z,7520.00
2018-04-15T10:48:46.099Z,7476.00
2018-04-15T10:49:46.262Z,7368.00
2018-04-15T10:50:46.468Z,7336.00
2018-04-15T10:51:46.680Z,7264.00
2018-04-15T10:52:46.824Z,7188.00
2018-04-15T10:53:47.033Z,7140.00
2018-04-15T10:54:47.184Z,7088.00
2018-04-15T10:55:47.383Z,7032.00
2018-04-15T10:56:47.636Z,6984.00
2018-04-15T10:57:47.930Z,6948.00
2018-04-15T10:58:48.043Z,6892.00
2018-04-15T10:59:48.281Z,6848.00
2018-04-15T11:00:48.426Z,6800.00
2018-04-15T11:01:48.648Z,6744.00
2018-04-15T11:02:48.788Z,6672.00
2018-04-15T11:03:48.990Z,6636.00
2018-04-15T11:04:49.186Z,6540.00
2018-04-15T11:05:49.380Z,6528.00
2018-04-15T11:06:49.629Z,6468.00
2018-04-15T11:07:49.719Z,6416.00
2018-04-15T11:08:49.893Z,6476.00
2018-04-15T11:09:50.110Z,6392.00
2018-04-15T11:10:50.249Z,6344.00
2018-04-15T11:11:50.475Z,4640.00
2018-04-15T11:12:50.636Z,4408.00
2018-04-15T11:13:50.845Z,4480.00
2018-04-15T11:14:50.916Z,4548.00
2018-04-15T11:15:51.094Z,5316.00
2018-04-15T11:16:51.293Z,5040.00
2018-04-15T11:17:51.455Z,5628.00
2018-04-15T11:18:51.616Z,5492.00
2018-04-15T11:19:51.812Z,5184.00
2018-04-15T11:20:51.972Z,5340.00
2018-04-15T11:21:52.150Z,5336.00
2018-04-15T11:22:52.353Z,5212.00
2018-04-15T11:23:52.527Z,5412.00
2018-04-15T11:24:52.711Z,5900.00
2018-04-15T11:25:52.938Z,6032.00
2018-04-15T11:26:53.120Z,6208.00
2018-04-15T11:27:53.353Z,5240.00
2018-04-15T11:28:53.627Z,5344.00
2018-04-15T11:29:53.747Z,5544.00
2018-04-15T11:30:53.915Z,5576.00
2018-04-15T11:31:54.079Z,5924.00
2018-04-15T11:32:54.297Z,5516.00
2018-04-15T11:33:58.100Z,5992.00
2018-04-15T11:34:54.644Z,5892.00
2018-04-15T11:35:54.819Z,5664.00
2018-04-15T11:36:54.997Z,5424.00
2018-04-15T11:37:55.153Z,4616.00
2018-04-15T11:38:55.337Z,5672.00
2018-04-15T11:39:55.510Z,5540.00
2018-04-15T11:40:55.672Z,5788.00
2018-04-15T11:41:55.866Z,5764.00
2018-04-15T11:42:56.098Z,5540.00
2018-04-15T11:43:56.290Z,5704.00
2018-04-15T11:44:56.501Z,5556.00
2018-04-15T11:45:56.695Z,5752.00
2018-04-15T11:46:56.875Z,5856.00
2018-04-15T11:47:57.046Z,5624.00
2018-04-15T11:48:57.222Z,4940.00
2018-04-15T11:49:57.446Z,5552.00
2018-04-15T11:50:58.464Z,5912.00
2018-04-15T11:51:57.766Z,5976.00
2018-04-15T11:52:57.965Z,5952.00
2018-04-15T11:53:58.182Z,5956.00
2018-04-15T11:54:58.392Z,5988.00
2018-04-15T11:55:58.621Z,5880.00
2018-04-15T11:56:58.748Z,5680.00
2018-04-15T11:57:58.967Z,5956.00
2018-04-15T11:58:59.149Z,5924.00
2018-04-15T11:59:59.395Z,5772.00
2018-04-15T12:00:59.549Z,5700.00
2018-04-15T12:01:59.698Z,5632.00
2018-04-15T12:04:00.091Z,5760.00
2018-04-15T12:05:00.281Z,5788.00
2018-04-15T12:06:00.590Z,5812.00
2018-04-15T12:07:00.627Z,5868.00
2018-04-15T12:08:00.751Z,5852.00
2018-04-15T12:09:00.968Z,5440.00
2018-04-15T12:10:01.153Z,4812.00
2018-04-15T12:11:01.291Z,3984.00
2018-04-15T12:12:01.519Z,4188.00
2018-04-15T12:14:01.826Z,4400.00
2018-04-15T12:15:02.013Z,4420.00
2018-04-15T12:16:02.214Z,4840.00
2018-04-15T12:17:02.440Z,4656.00
2018-04-15T12:18:02.608Z,6464.00
2018-04-15T12:19:02.858Z,6236.00
2018-04-15T12:20:03.075Z,6224.00
2018-04-15T12:21:03.268Z,5836.00
2018-04-15T12:22:03.363Z,5268.00
2018-04-15T12:23:03.581Z,5124.00
2018-04-15T12:24:03.989Z,3960.00
2018-04-15T12:25:03.905Z,3824.00
2018-04-15T12:26:04.079Z,3784.00
2018-04-15T12:27:04.256Z,3644.00
2018-04-15T12:28:04.434Z,3548.00
2018-04-15T12:29:04.611Z,3444.00
2018-04-15T12:30:04.786Z,3408.00
2018-04-15T12:31:05.022Z,3524.00
2018-04-15T12:32:05.149Z,3468.00
2018-04-15T12:33:05.352Z,3432.00
2018-04-15T12:34:05.507Z,3460.00
2018-04-15T12:35:07.496Z,5572.00
2018-04-15T12:36:05.884Z,5284.00
2018-04-15T12:37:06.074Z,5656.00
2018-04-15T12:38:06.340Z,5728.00